sensor_id;sensor_type;location;lat;lon;timestamp;P1;durP1;ratioP1;P2;durP2;ratioP2
23370;SDS011;11858;51.056;3.712;2023-03-01T00:01:25;32.25;;;28.98;;
23370;SDS011;11858;51.056;3.712;2023-03-01T00:03:53;30.17;;;27.52;;
23370;SDS011;11858;51.056;3.712;2023-03-01T00:06:19;30.55;;;27.88;;
23370;SDS011;11858;51.056;3.712;2023-03-01T00:08:46;30.80;;;27.92;;
23370;SDS011;11858;51.056;3.712;2023-03-01T00:11:13;30.00;;;27.05;;
23370;SDS011;11858;51.056;3.712;2023-03-01T00:13:42;29.83;;;27.08;;
23370;SDS011;11858;51.056;3.712;2023-03-01T00:16:09;30.92;;;28.23;;
23370;SDS011;11858;51.056;3.712;2023-03-01T00:18:38;31.92;;;28.95;;
23370;SDS011;11858;51.056;3.712;2023-03-01T00:21:04;31.58;;;28.45;;
23370;SDS011;11858;51.056;3.712;2023-03-01T00:23:30;31.17;;;28.17;;
23370;SDS011;11858;51.056;3.712;2023-03-01T00:25:56;31.83;;;28.83;;
23370;SDS011;11858;51.056;3.712;2023-03-01T00:28:22;32.45;;;29.25;;
23370;SDS011;11858;51.056;3.712;2023-03-01T00:30:48;32.78;;;29.55;;
23370;SDS011;11858;51.056;3.712;2023-03-01T00:33:14;32.95;;;29.52;;
23370;SDS011;11858;51.056;3.712;2023-03-01T00:35:40;33.58;;;30.10;;
23370;SDS011;11858;51.056;3.712;2023-03-01T00:38:05;35.53;;;31.15;;
23370;SDS011;11858;51.056;3.712;2023-03-01T00:40:33;32.00;;;29.00;;
23370;SDS011;11858;51.056;3.712;2023-03-01T00:42:59;32.38;;;29.05;;
23370;SDS011;11858;51.056;3.712;2023-03-01T00:45:25;32.55;;;29.42;;
23370;SDS011;11858;51.056;3.712;2023-03-01T00:47:52;32.80;;;29.63;;
23370;SDS011;11858;51.056;3.712;2023-03-01T00:50:18;34.25;;;30.75;;
23370;SDS011;11858;51.056;3.712;2023-03-01T00:52:44;34.22;;;30.52;;
23370;SDS011;11858;51.056;3.712;2023-03-01T00:55:11;33.90;;;30.42;;
23370;SDS011;11858;51.056;3.712;2023-03-01T00:57:37;33.28;;;30.10;;
23370;SDS011;11858;51.056;3.712;2023-03-01T01:00:04;33.25;;;30.15;;
23370;SDS011;11858;51.056;3.712;2023-03-01T01:02:34;33.58;;;30.33;;
23370;SDS011;11858;51.056;3.712;2023-03-01T01:05:01;30.20;;;27.33;;
23370;SDS011;11858;51.056;3.712;2023-03-01T01:07:26;35.58;;;30.92;;
23370;SDS011;11858;51.056;3.712;2023-03-01T01:09:52;36.63;;;30.50;;
23370;SDS011;11858;51.056;3.712;2023-03-01T01:12:18;34.83;;;31.33;;
23370;SDS011;11858;51.056;3.712;2023-03-01T01:14:44;34.97;;;31.45;;
23370;SDS011;11858;51.056;3.712;2023-03-01T01:17:10;33.13;;;30.00;;
23370;SDS011;11858;51.056;3.712;2023-03-01T01:19:35;34.42;;;30.92;;
23370;SDS011;11858;51.056;3.712;2023-03-01T01:22:01;33.67;;;30.15;;
23370;SDS011;11858;51.056;3.712;2023-03-01T01:24:28;35.30;;;31.73;;
23370;SDS011;11858;51.056;3.712;2023-03-01T01:26:54;34.70;;;30.92;;
23370;SDS011;11858;51.056;3.712;2023-03-01T01:29:19;34.72;;;30.08;;
23370;SDS011;11858;51.056;3.712;2023-03-01T01:31:45;34.92;;;31.55;;
23370;SDS011;11858;51.056;3.712;2023-03-01T01:34:15;34.40;;;31.02;;
23370;SDS011;11858;51.056;3.712;2023-03-01T01:36:43;37.33;;;32.30;;
23370;SDS011;11858;51.056;3.712;2023-03-01T01:39:12;34.58;;;31.15;;
23370;SDS011;11858;51.056;3.712;2023-03-01T01:41:38;34.90;;;31.25;;
23370;SDS011;11858;51.056;3.712;2023-03-01T01:49:27;38.38;;;31.60;;
23370;SDS011;11858;51.056;3.712;2023-03-01T01:52:20;36.13;;;32.42;;
23370;SDS011;11858;51.056;3.712;2023-03-01T01:54:54;36.28;;;32.40;;
23370;SDS011;11858;51.056;3.712;2023-03-01T01:57:29;35.83;;;31.92;;
23370;SDS011;11858;51.056;3.712;2023-03-01T02:00:04;36.40;;;32.65;;
23370;SDS011;11858;51.056;3.712;2023-03-01T02:02:51;36.10;;;32.45;;
23370;SDS011;11858;51.056;3.712;2023-03-01T02:08:00;35.08;;;31.65;;
23370;SDS011;11858;51.056;3.712;2023-03-01T02:10:26;34.90;;;31.45;;
23370;SDS011;11858;51.056;3.712;2023-03-01T02:12:53;35.22;;;31.92;;
23370;SDS011;11858;51.056;3.712;2023-03-01T02:15:21;34.90;;;31.50;;
23370;SDS011;11858;51.056;3.712;2023-03-01T02:17:48;35.22;;;31.83;;
23370;SDS011;11858;51.056;3.712;2023-03-01T02:22:52;34.97;;;31.77;;
23370;SDS011;11858;51.056;3.712;2023-03-01T02:25:27;35.97;;;32.03;;
23370;SDS011;11858;51.056;3.712;2023-03-01T02:27:55;36.65;;;32.83;;
23370;SDS011;11858;51.056;3.712;2023-03-01T02:30:22;35.45;;;32.03;;
23370;SDS011;11858;51.056;3.712;2023-03-01T02:32:49;36.97;;;33.17;;
23370;SDS011;11858;51.056;3.712;2023-03-01T02:35:17;37.30;;;33.60;;
23370;SDS011;11858;51.056;3.712;2023-03-01T02:37:44;35.97;;;32.38;;
23370;SDS011;11858;51.056;3.712;2023-03-01T02:40:13;37.22;;;33.08;;
23370;SDS011;11858;51.056;3.712;2023-03-01T02:42:47;35.20;;;31.85;;
23370;SDS011;11858;51.056;3.712;2023-03-01T02:45:18;37.28;;;33.22;;
23370;SDS011;11858;51.056;3.712;2023-03-01T02:47:44;36.08;;;32.45;;
23370;SDS011;11858;51.056;3.712;2023-03-01T02:50:15;37.22;;;33.35;;
23370;SDS011;11858;51.056;3.712;2023-03-01T02:56:01;39.20;;;35.08;;
23370;SDS011;11858;51.056;3.712;2023-03-01T02:58:27;38.13;;;33.78;;
23370;SDS011;11858;51.056;3.712;2023-03-01T03:00:52;38.15;;;34.25;;
23370;SDS011;11858;51.056;3.712;2023-03-01T03:03:19;39.60;;;35.30;;
23370;SDS011;11858;51.056;3.712;2023-03-01T03:05:46;38.13;;;34.03;;
23370;SDS011;11858;51.056;3.712;2023-03-01T03:08:13;40.25;;;35.90;;
23370;SDS011;11858;51.056;3.712;2023-03-01T03:10:41;42.00;;;36.25;;
23370;SDS011;11858;51.056;3.712;2023-03-01T03:13:11;40.22;;;35.83;;
23370;SDS011;11858;51.056;3.712;2023-03-01T03:15:38;42.13;;;36.22;;
23370;SDS011;11858;51.056;3.712;2023-03-01T03:18:05;45.92;;;36.10;;
23370;SDS011;11858;51.056;3.712;2023-03-01T03:20:33;44.78;;;37.35;;
23370;SDS011;11858;51.056;3.712;2023-03-01T03:22:59;45.13;;;37.65;;
23370;SDS011;11858;51.056;3.712;2023-03-01T03:25:26;49.25;;;38.47;;
23370;SDS011;11858;51.056;3.712;2023-03-01T03:27:53;50.78;;;39.20;;
23370;SDS011;11858;51.056;3.712;2023-03-01T03:30:21;47.63;;;38.60;;
23370;SDS011;11858;51.056;3.712;2023-03-01T03:32:49;54.25;;;38.22;;
23370;SDS011;11858;51.056;3.712;2023-03-01T03:35:19;43.95;;;37.15;;
23370;SDS011;11858;51.056;3.712;2023-03-01T03:37:55;49.78;;;37.28;;
23370;SDS011;11858;51.056;3.712;2023-03-01T03:40:32;53.78;;;38.33;;
23370;SDS011;11858;51.056;3.712;2023-03-01T03:43:04;45.50;;;36.42;;
23370;SDS011;11858;51.056;3.712;2023-03-01T03:45:32;47.55;;;38.30;;
23370;SDS011;11858;51.056;3.712;2023-03-01T03:47:58;45.55;;;36.17;;
23370;SDS011;11858;51.056;3.712;2023-03-01T03:50:25;44.83;;;33.72;;
23370;SDS011;11858;51.056;3.712;2023-03-01T03:52:51;42.78;;;33.63;;
23370;SDS011;11858;51.056;3.712;2023-03-01T03:55:17;42.47;;;32.70;;
23370;SDS011;11858;51.056;3.712;2023-03-01T03:57:44;39.92;;;32.35;;
23370;SDS011;11858;51.056;3.712;2023-03-01T04:00:17;40.80;;;31.05;;
23370;SDS011;11858;51.056;3.712;2023-03-01T04:02:45;44.38;;;36.65;;
23370;SDS011;11858;51.056;3.712;2023-03-01T04:05:12;42.95;;;36.95;;
23370;SDS011;11858;51.056;3.712;2023-03-01T04:07:39;41.53;;;37.10;;
23370;SDS011;11858;51.056;3.712;2023-03-01T04:10:10;47.63;;;36.50;;
23370;SDS011;11858;51.056;3.712;2023-03-01T04:12:39;40.85;;;36.75;;
23370;SDS011;11858;51.056;3.712;2023-03-01T04:15:05;38.38;;;34.33;;
23370;SDS011;11858;51.056;3.712;2023-03-01T04:17:42;41.53;;;37.38;;
23370;SDS011;11858;51.056;3.712;2023-03-01T04:20:09;33.78;;;30.58;;
23370;SDS011;11858;51.056;3.712;2023-03-01T04:22:37;40.83;;;36.78;;
23370;SDS011;11858;51.056;3.712;2023-03-01T04:25:04;41.78;;;37.58;;
23370;SDS011;11858;51.056;3.712;2023-03-01T04:27:34;41.20;;;37.28;;
23370;SDS011;11858;51.056;3.712;2023-03-01T04:30:01;40.67;;;36.78;;
23370;SDS011;11858;51.056;3.712;2023-03-01T04:32:28;41.53;;;37.63;;
23370;SDS011;11858;51.056;3.712;2023-03-01T04:34:54;38.08;;;34.63;;
23370;SDS011;11858;51.056;3.712;2023-03-01T04:37:19;41.33;;;37.00;;
23370;SDS011;11858;51.056;3.712;2023-03-01T04:39:45;39.00;;;35.15;;
23370;SDS011;11858;51.056;3.712;2023-03-01T04:42:11;42.30;;;38.20;;
23370;SDS011;11858;51.056;3.712;2023-03-01T04:44:37;43.25;;;39.13;;
23370;SDS011;11858;51.056;3.712;2023-03-01T04:47:03;40.65;;;36.40;;
23370;SDS011;11858;51.056;3.712;2023-03-01T04:49:29;40.70;;;36.65;;
23370;SDS011;11858;51.056;3.712;2023-03-01T04:51:54;41.35;;;37.15;;
23370;SDS011;11858;51.056;3.712;2023-03-01T04:54:23;42.67;;;38.47;;
23370;SDS011;11858;51.056;3.712;2023-03-01T04:56:48;42.08;;;37.80;;
23370;SDS011;11858;51.056;3.712;2023-03-01T04:59:14;42.28;;;37.85;;
23370;SDS011;11858;51.056;3.712;2023-03-01T05:01:40;43.92;;;39.33;;
23370;SDS011;11858;51.056;3.712;2023-03-01T05:04:07;42.00;;;37.60;;
23370;SDS011;11858;51.056;3.712;2023-03-01T05:06:37;43.23;;;38.57;;
23370;SDS011;11858;51.056;3.712;2023-03-01T05:09:04;42.60;;;38.45;;
23370;SDS011;11858;51.056;3.712;2023-03-01T05:11:30;46.28;;;40.25;;
23370;SDS011;11858;51.056;3.712;2023-03-01T05:14:00;44.45;;;39.80;;
23370;SDS011;11858;51.056;3.712;2023-03-01T05:16:29;42.78;;;38.25;;
23370;SDS011;11858;51.056;3.712;2023-03-01T05:18:56;44.88;;;40.17;;
23370;SDS011;11858;51.056;3.712;2023-03-01T05:21:22;43.03;;;38.42;;
23370;SDS011;11858;51.056;3.712;2023-03-01T05:23:48;41.72;;;36.90;;
23370;SDS011;11858;51.056;3.712;2023-03-01T05:26:14;41.70;;;36.25;;
23370;SDS011;11858;51.056;3.712;2023-03-01T05:28:42;41.47;;;36.97;;
23370;SDS011;11858;51.056;3.712;2023-03-01T05:31:08;34.50;;;30.70;;
23370;SDS011;11858;51.056;3.712;2023-03-01T05:33:38;43.97;;;31.63;;
23370;SDS011;11858;51.056;3.712;2023-03-01T05:36:05;35.95;;;30.73;;
23370;SDS011;11858;51.056;3.712;2023-03-01T05:38:32;36.35;;;30.50;;
23370;SDS011;11858;51.056;3.712;2023-03-01T05:40:58;36.45;;;29.55;;
23370;SDS011;11858;51.056;3.712;2023-03-01T05:43:24;37.75;;;31.77;;
23370;SDS011;11858;51.056;3.712;2023-03-01T05:45:50;36.47;;;29.05;;
23370;SDS011;11858;51.056;3.712;2023-03-01T05:48:16;33.30;;;29.05;;
23370;SDS011;11858;51.056;3.712;2023-03-01T05:50:44;35.03;;;29.63;;
23370;SDS011;11858;51.056;3.712;2023-03-01T05:55:40;37.50;;;29.77;;
23370;SDS011;11858;51.056;3.712;2023-03-01T05:58:10;36.38;;;29.85;;
23370;SDS011;11858;51.056;3.712;2023-03-01T06:00:39;35.28;;;29.55;;
23370;SDS011;11858;51.056;3.712;2023-03-01T06:03:05;33.67;;;28.85;;
23370;SDS011;11858;51.056;3.712;2023-03-01T06:05:31;33.42;;;28.33;;
23370;SDS011;11858;51.056;3.712;2023-03-01T06:08:00;34.58;;;28.65;;
23370;SDS011;11858;51.056;3.712;2023-03-01T06:10:29;41.67;;;28.73;;
23370;SDS011;11858;51.056;3.712;2023-03-01T06:12:55;34.42;;;28.88;;
23370;SDS011;11858;51.056;3.712;2023-03-01T06:15:21;36.67;;;29.35;;
23370;SDS011;11858;51.056;3.712;2023-03-01T06:17:47;34.53;;;28.77;;
23370;SDS011;11858;51.056;3.712;2023-03-01T06:20:14;35.55;;;29.45;;
23370;SDS011;11858;51.056;3.712;2023-03-01T06:22:45;38.97;;;29.38;;
23370;SDS011;11858;51.056;3.712;2023-03-01T06:25:12;35.40;;;29.55;;
23370;SDS011;11858;51.056;3.712;2023-03-01T06:27:40;35.03;;;29.10;;
23370;SDS011;11858;51.056;3.712;2023-03-01T06:30:07;36.60;;;28.25;;
23370;SDS011;11858;51.056;3.712;2023-03-01T06:32:35;36.63;;;29.17;;
23370;SDS011;11858;51.056;3.712;2023-03-01T06:35:02;37.03;;;28.95;;
23370;SDS011;11858;51.056;3.712;2023-03-01T06:37:28;33.63;;;28.40;;
23370;SDS011;11858;51.056;3.712;2023-03-01T06:39:54;35.35;;;28.33;;
23370;SDS011;11858;51.056;3.712;2023-03-01T06:42:20;36.83;;;28.23;;
23370;SDS011;11858;51.056;3.712;2023-03-01T06:44:45;34.83;;;28.67;;
23370;SDS011;11858;51.056;3.712;2023-03-01T06:47:11;34.58;;;28.80;;
23370;SDS011;11858;51.056;3.712;2023-03-01T06:49:37;39.53;;;29.98;;
23370;SDS011;11858;51.056;3.712;2023-03-01T06:52:03;33.92;;;29.40;;
23370;SDS011;11858;51.056;3.712;2023-03-01T06:54:29;36.33;;;29.98;;
23370;SDS011;11858;51.056;3.712;2023-03-01T06:56:55;36.22;;;30.65;;
23370;SDS011;11858;51.056;3.712;2023-03-01T06:59:21;39.22;;;28.20;;
23370;SDS011;11858;51.056;3.712;2023-03-01T07:01:46;32.92;;;28.65;;
23370;SDS011;11858;51.056;3.712;2023-03-01T07:04:13;34.58;;;30.08;;
23370;SDS011;11858;51.056;3.712;2023-03-01T07:06:39;36.13;;;30.67;;
23370;SDS011;11858;51.056;3.712;2023-03-01T07:09:04;34.08;;;28.95;;
23370;SDS011;11858;51.056;3.712;2023-03-01T07:11:30;32.55;;;29.23;;
23370;SDS011;11858;51.056;3.712;2023-03-01T07:13:56;31.95;;;28.63;;
23370;SDS011;11858;51.056;3.712;2023-03-01T07:16:23;32.50;;;29.00;;
23370;SDS011;11858;51.056;3.712;2023-03-01T07:18:49;32.25;;;28.80;;
23370;SDS011;11858;51.056;3.712;2023-03-01T07:21:14;32.70;;;29.30;;
23370;SDS011;11858;51.056;3.712;2023-03-01T07:23:41;31.38;;;28.08;;
23370;SDS011;11858;51.056;3.712;2023-03-01T07:26:07;33.10;;;29.38;;
23370;SDS011;11858;51.056;3.712;2023-03-01T07:28:33;33.17;;;29.67;;
23370;SDS011;11858;51.056;3.712;2023-03-01T07:31:04;33.70;;;30.15;;
23370;SDS011;11858;51.056;3.712;2023-03-01T07:33:31;34.42;;;30.88;;
23370;SDS011;11858;51.056;3.712;2023-03-01T07:35:57;39.53;;;31.65;;
23370;SDS011;11858;51.056;3.712;2023-03-01T07:38:27;37.58;;;32.10;;
23370;SDS011;11858;51.056;3.712;2023-03-01T07:40:54;34.03;;;30.40;;
23370;SDS011;11858;51.056;3.712;2023-03-01T07:43:24;35.83;;;31.63;;
23370;SDS011;11858;51.056;3.712;2023-03-01T07:45:50;33.38;;;29.88;;
23370;SDS011;11858;51.056;3.712;2023-03-01T07:48:22;34.10;;;30.58;;
23370;SDS011;11858;51.056;3.712;2023-03-01T07:50:48;35.05;;;31.42;;
23370;SDS011;11858;51.056;3.712;2023-03-01T07:53:14;37.78;;;30.20;;
23370;SDS011;11858;51.056;3.712;2023-03-01T07:55:39;35.45;;;30.50;;
23370;SDS011;11858;51.056;3.712;2023-03-01T07:58:05;32.85;;;29.85;;
23370;SDS011;11858;51.056;3.712;2023-03-01T08:00:31;31.42;;;28.42;;
23370;SDS011;11858;51.056;3.712;2023-03-01T08:03:00;34.10;;;30.08;;
23370;SDS011;11858;51.056;3.712;2023-03-01T08:05:26;33.72;;;30.50;;
23370;SDS011;11858;51.056;3.712;2023-03-01T08:07:53;33.63;;;30.08;;
23370;SDS011;11858;51.056;3.712;2023-03-01T08:10:19;32.97;;;30.00;;
23370;SDS011;11858;51.056;3.712;2023-03-01T08:12:45;33.65;;;30.25;;
23370;SDS011;11858;51.056;3.712;2023-03-01T08:15:11;32.10;;;28.92;;
23370;SDS011;11858;51.056;3.712;2023-03-01T08:17:37;32.10;;;29.30;;
23370;SDS011;11858;51.056;3.712;2023-03-01T08:20:03;32.42;;;29.50;;
23370;SDS011;11858;51.056;3.712;2023-03-01T08:22:32;31.58;;;28.80;;
23370;SDS011;11858;51.056;3.712;2023-03-01T08:24:57;32.63;;;29.65;;
23370;SDS011;11858;51.056;3.712;2023-03-01T08:27:23;30.58;;;27.88;;
23370;SDS011;11858;51.056;3.712;2023-03-01T08:29:49;32.60;;;29.65;;
23370;SDS011;11858;51.056;3.712;2023-03-01T08:32:14;31.13;;;28.10;;
23370;SDS011;11858;51.056;3.712;2023-03-01T08:34:40;30.75;;;28.13;;
23370;SDS011;11858;51.056;3.712;2023-03-01T08:37:06;32.28;;;29.15;;
23370;SDS011;11858;51.056;3.712;2023-03-01T08:39:31;31.13;;;28.13;;
23370;SDS011;11858;51.056;3.712;2023-03-01T08:41:57;30.25;;;27.70;;
23370;SDS011;11858;51.056;3.712;2023-03-01T08:44:24;32.20;;;28.75;;
23370;SDS011;11858;51.056;3.712;2023-03-01T08:46:50;30.27;;;27.67;;
23370;SDS011;11858;51.056;3.712;2023-03-01T08:49:18;31.02;;;28.33;;
23370;SDS011;11858;51.056;3.712;2023-03-01T08:51:45;31.02;;;28.05;;
23370;SDS011;11858;51.056;3.712;2023-03-01T08:54:13;31.05;;;27.98;;
23370;SDS011;11858;51.056;3.712;2023-03-01T08:56:44;30.13;;;27.08;;
23370;SDS011;11858;51.056;3.712;2023-03-01T08:59:11;30.08;;;27.38;;
23370;SDS011;11858;51.056;3.712;2023-03-01T09:01:38;31.80;;;28.40;;
23370;SDS011;11858;51.056;3.712;2023-03-01T09:04:05;30.52;;;27.55;;
23370;SDS011;11858;51.056;3.712;2023-03-01T09:06:31;31.15;;;28.00;;
23370;SDS011;11858;51.056;3.712;2023-03-01T09:08:59;30.27;;;27.58;;
23370;SDS011;11858;51.056;3.712;2023-03-01T09:11:26;29.33;;;26.83;;
23370;SDS011;11858;51.056;3.712;2023-03-01T09:13:52;30.10;;;27.60;;
23370;SDS011;11858;51.056;3.712;2023-03-01T09:16:19;30.67;;;28.00;;
23370;SDS011;11858;51.056;3.712;2023-03-01T09:18:50;31.08;;;27.63;;
23370;SDS011;11858;51.056;3.712;2023-03-01T09:21:18;30.23;;;27.40;;
23370;SDS011;11858;51.056;3.712;2023-03-01T09:23:46;29.77;;;26.77;;
23370;SDS011;11858;51.056;3.712;2023-03-01T09:26:14;29.42;;;26.92;;
23370;SDS011;11858;51.056;3.712;2023-03-01T09:28:41;29.95;;;27.05;;
23370;SDS011;11858;51.056;3.712;2023-03-01T09:31:09;29.88;;;27.08;;
23370;SDS011;11858;51.056;3.712;2023-03-01T09:33:38;29.75;;;26.63;;
23370;SDS011;11858;51.056;3.712;2023-03-01T09:36:06;30.08;;;27.00;;
23370;SDS011;11858;51.056;3.712;2023-03-01T09:38:35;28.77;;;26.17;;
23370;SDS011;11858;51.056;3.712;2023-03-01T09:41:01;29.67;;;26.98;;
23370;SDS011;11858;51.056;3.712;2023-03-01T09:43:29;29.35;;;26.42;;
23370;SDS011;11858;51.056;3.712;2023-03-01T09:46:06;29.42;;;26.73;;
23370;SDS011;11858;51.056;3.712;2023-03-01T09:48:52;28.52;;;26.15;;
23370;SDS011;11858;51.056;3.712;2023-03-01T09:51:40;28.83;;;26.25;;
23370;SDS011;11858;51.056;3.712;2023-03-01T09:54:08;28.70;;;26.00;;
23370;SDS011;11858;51.056;3.712;2023-03-01T09:56:46;28.42;;;25.92;;
23370;SDS011;11858;51.056;3.712;2023-03-01T09:59:41;31.02;;;27.73;;
23370;SDS011;11858;51.056;3.712;2023-03-01T10:02:43;31.23;;;27.40;;
23370;SDS011;11858;51.056;3.712;2023-03-01T10:08:03;29.65;;;27.00;;
23370;SDS011;11858;51.056;3.712;2023-03-01T10:10:36;28.92;;;26.35;;
23370;SDS011;11858;51.056;3.712;2023-03-01T10:13:15;29.45;;;26.80;;
23370;SDS011;11858;51.056;3.712;2023-03-01T10:15:49;29.17;;;26.52;;
23370;SDS011;11858;51.056;3.712;2023-03-01T10:18:21;28.92;;;26.33;;
23370;SDS011;11858;51.056;3.712;2023-03-01T10:20:58;28.40;;;26.10;;
23370;SDS011;11858;51.056;3.712;2023-03-01T10:23:27;28.20;;;25.60;;
23370;SDS011;11858;51.056;3.712;2023-03-01T10:31:17;28.58;;;25.83;;
23370;SDS011;11858;51.056;3.712;2023-03-01T10:33:47;27.90;;;25.38;;
23370;SDS011;11858;51.056;3.712;2023-03-01T10:36:16;28.10;;;25.75;;
23370;SDS011;11858;51.056;3.712;2023-03-01T10:41:23;28.30;;;25.85;;
23370;SDS011;11858;51.056;3.712;2023-03-01T10:43:52;28.02;;;25.52;;
23370;SDS011;11858;51.056;3.712;2023-03-01T10:46:24;27.77;;;25.00;;
23370;SDS011;11858;51.056;3.712;2023-03-01T10:51:32;27.00;;;24.70;;
23370;SDS011;11858;51.056;3.712;2023-03-01T10:53:58;27.50;;;24.77;;
23370;SDS011;11858;51.056;3.712;2023-03-01T10:56:24;27.23;;;24.80;;
23370;SDS011;11858;51.056;3.712;2023-03-01T10:59:00;27.48;;;24.98;;
23370;SDS011;11858;51.056;3.712;2023-03-01T11:01:32;28.35;;;25.48;;
23370;SDS011;11858;51.056;3.712;2023-03-01T11:04:09;27.40;;;24.88;;
23370;SDS011;11858;51.056;3.712;2023-03-01T11:06:38;27.40;;;25.00;;
23370;SDS011;11858;51.056;3.712;2023-03-01T11:09:18;26.70;;;24.10;;
23370;SDS011;11858;51.056;3.712;2023-03-01T11:11:49;26.55;;;24.30;;
23370;SDS011;11858;51.056;3.712;2023-03-01T11:16:48;26.50;;;24.20;;
23370;SDS011;11858;51.056;3.712;2023-03-01T11:19:24;26.65;;;24.35;;
23370;SDS011;11858;51.056;3.712;2023-03-01T11:22:03;26.50;;;24.40;;
23370;SDS011;11858;51.056;3.712;2023-03-01T11:24:43;26.67;;;24.45;;
23370;SDS011;11858;51.056;3.712;2023-03-01T11:32:26;27.67;;;24.90;;
23370;SDS011;11858;51.056;3.712;2023-03-01T11:35:03;27.08;;;24.73;;
23370;SDS011;11858;51.056;3.712;2023-03-01T11:37:44;26.08;;;23.85;;
23370;SDS011;11858;51.056;3.712;2023-03-01T11:40:27;25.40;;;23.50;;
23370;SDS011;11858;51.056;3.712;2023-03-01T11:43:06;26.13;;;24.02;;
23370;SDS011;11858;51.056;3.712;2023-03-01T11:45:52;26.50;;;24.10;;
23370;SDS011;11858;51.056;3.712;2023-03-01T11:48:44;26.98;;;24.63;;
23370;SDS011;11858;51.056;3.712;2023-03-01T12:04:54;25.95;;;23.85;;
23370;SDS011;11858;51.056;3.712;2023-03-01T12:08:29;26.73;;;24.38;;
23370;SDS011;11858;51.056;3.712;2023-03-01T12:10:30;28.95;;;26.08;;
23370;SDS011;11858;51.056;3.712;2023-03-01T12:13:19;27.15;;;24.85;;
23370;SDS011;11858;51.056;3.712;2023-03-01T12:16:09;27.52;;;25.10;;
23370;SDS011;11858;51.056;3.712;2023-03-01T12:19:12;26.35;;;24.05;;
23370;SDS011;11858;51.056;3.712;2023-03-01T12:29:38;27.08;;;24.88;;
23370;SDS011;11858;51.056;3.712;2023-03-01T12:32:28;25.80;;;23.50;;
23370;SDS011;11858;51.056;3.712;2023-03-01T12:37:24;26.35;;;23.88;;
23370;SDS011;11858;51.056;3.712;2023-03-01T12:48:24;25.52;;;23.10;;
23370;SDS011;11858;51.056;3.712;2023-03-01T12:50:53;26.27;;;24.10;;
23370;SDS011;11858;51.056;3.712;2023-03-01T12:53:27;26.15;;;23.95;;
23370;SDS011;11858;51.056;3.712;2023-03-01T12:55:58;26.35;;;24.10;;
23370;SDS011;11858;51.056;3.712;2023-03-01T13:01:13;25.60;;;23.58;;
23370;SDS011;11858;51.056;3.712;2023-03-01T13:09:19;25.77;;;23.52;;
23370;SDS011;11858;51.056;3.712;2023-03-01T13:11:59;25.95;;;23.75;;
23370;SDS011;11858;51.056;3.712;2023-03-01T13:16:51;26.42;;;24.23;;
23370;SDS011;11858;51.056;3.712;2023-03-01T13:19:21;26.85;;;24.65;;
23370;SDS011;11858;51.056;3.712;2023-03-01T13:21:54;25.75;;;23.42;;
23370;SDS011;11858;51.056;3.712;2023-03-01T13:24:38;26.83;;;24.27;;
23370;SDS011;11858;51.056;3.712;2023-03-01T13:29:45;26.40;;;24.10;;
23370;SDS011;11858;51.056;3.712;2023-03-01T13:32:26;25.60;;;23.48;;
23370;SDS011;11858;51.056;3.712;2023-03-01T13:37:42;26.02;;;23.58;;
23370;SDS011;11858;51.056;3.712;2023-03-01T13:42:55;25.42;;;23.17;;
23370;SDS011;11858;51.056;3.712;2023-03-01T13:45:24;24.58;;;22.58;;
23370;SDS011;11858;51.056;3.712;2023-03-01T13:48:02;24.63;;;22.73;;
23370;SDS011;11858;51.056;3.712;2023-03-01T13:50:50;25.05;;;22.75;;
23370;SDS011;11858;51.056;3.712;2023-03-01T13:53:21;24.60;;;22.45;;
23370;SDS011;11858;51.056;3.712;2023-03-01T13:55:55;25.83;;;23.53;;
23370;SDS011;11858;51.056;3.712;2023-03-01T13:58:28;25.13;;;22.80;;
23370;SDS011;11858;51.056;3.712;2023-03-01T14:01:02;25.58;;;22.98;;
23370;SDS011;11858;51.056;3.712;2023-03-01T14:03:30;26.33;;;23.90;;
23370;SDS011;11858;51.056;3.712;2023-03-01T14:05:59;26.75;;;23.98;;
23370;SDS011;11858;51.056;3.712;2023-03-01T14:08:26;26.80;;;24.08;;
23370;SDS011;11858;51.056;3.712;2023-03-01T14:13:46;25.15;;;23.20;;
23370;SDS011;11858;51.056;3.712;2023-03-01T14:16:49;25.88;;;23.73;;
23370;SDS011;11858;51.056;3.712;2023-03-01T14:19:16;25.58;;;23.35;;
23370;SDS011;11858;51.056;3.712;2023-03-01T14:21:46;26.63;;;24.27;;
23370;SDS011;11858;51.056;3.712;2023-03-01T14:24:20;26.65;;;24.33;;
23370;SDS011;11858;51.056;3.712;2023-03-01T14:26:47;26.75;;;24.48;;
23370;SDS011;11858;51.056;3.712;2023-03-01T14:29:24;25.52;;;23.38;;
23370;SDS011;11858;51.056;3.712;2023-03-01T14:32:08;25.90;;;23.45;;
23370;SDS011;11858;51.056;3.712;2023-03-01T14:34:42;26.58;;;24.20;;
23370;SDS011;11858;51.056;3.712;2023-03-01T14:37:25;26.13;;;23.92;;
23370;SDS011;11858;51.056;3.712;2023-03-01T14:39:51;25.52;;;23.33;;
23370;SDS011;11858;51.056;3.712;2023-03-01T14:42:18;26.63;;;24.08;;
23370;SDS011;11858;51.056;3.712;2023-03-01T14:44:47;25.90;;;23.90;;
23370;SDS011;11858;51.056;3.712;2023-03-01T14:47:16;25.55;;;23.42;;
23370;SDS011;11858;51.056;3.712;2023-03-01T14:49:57;25.90;;;23.67;;
23370;SDS011;11858;51.056;3.712;2023-03-01T14:52:36;25.33;;;23.33;;
23370;SDS011;11858;51.056;3.712;2023-03-01T14:55:12;26.20;;;23.85;;
23370;SDS011;11858;51.056;3.712;2023-03-01T14:57:44;27.27;;;24.55;;
23370;SDS011;11858;51.056;3.712;2023-03-01T15:00:19;25.77;;;23.67;;
23370;SDS011;11858;51.056;3.712;2023-03-01T15:02:48;28.52;;;26.13;;
23370;SDS011;11858;51.056;3.712;2023-03-01T15:05:18;27.40;;;25.00;;
23370;SDS011;11858;51.056;3.712;2023-03-01T15:07:52;28.27;;;25.88;;
23370;SDS011;11858;51.056;3.712;2023-03-01T15:10:20;29.40;;;26.90;;
23370;SDS011;11858;51.056;3.712;2023-03-01T15:12:48;28.67;;;26.45;;
23370;SDS011;11858;51.056;3.712;2023-03-01T15:15:21;28.67;;;26.27;;
23370;SDS011;11858;51.056;3.712;2023-03-01T15:17:56;27.80;;;25.52;;
23370;SDS011;11858;51.056;3.712;2023-03-01T15:20:29;29.02;;;26.15;;
23370;SDS011;11858;51.056;3.712;2023-03-01T15:23:00;28.88;;;26.40;;
23370;SDS011;11858;51.056;3.712;2023-03-01T15:25:28;29.02;;;26.55;;
23370;SDS011;11858;51.056;3.712;2023-03-01T15:27:56;28.45;;;26.05;;
23370;SDS011;11858;51.056;3.712;2023-03-01T15:30:23;28.15;;;25.85;;
23370;SDS011;11858;51.056;3.712;2023-03-01T15:35:51;27.70;;;25.50;;
23370;SDS011;11858;51.056;3.712;2023-03-01T15:44:14;29.30;;;26.65;;
23370;SDS011;11858;51.056;3.712;2023-03-01T15:46:50;36.85;;;33.15;;
23370;SDS011;11858;51.056;3.712;2023-03-01T15:49:27;31.10;;;28.35;;
23370;SDS011;11858;51.056;3.712;2023-03-01T15:52:13;29.10;;;26.47;;
23370;SDS011;11858;51.056;3.712;2023-03-01T15:55:05;30.55;;;27.85;;
23370;SDS011;11858;51.056;3.712;2023-03-01T15:57:40;30.00;;;27.52;;
23370;SDS011;11858;51.056;3.712;2023-03-01T16:00:06;29.17;;;26.75;;
23370;SDS011;11858;51.056;3.712;2023-03-01T16:02:38;30.65;;;28.05;;
23370;SDS011;11858;51.056;3.712;2023-03-01T16:05:09;30.60;;;28.00;;
23370;SDS011;11858;51.056;3.712;2023-03-01T16:07:56;30.50;;;27.77;;
23370;SDS011;11858;51.056;3.712;2023-03-01T16:10:22;30.48;;;27.65;;
23370;SDS011;11858;51.056;3.712;2023-03-01T16:12:49;28.88;;;26.58;;
23370;SDS011;11858;51.056;3.712;2023-03-01T16:17:45;31.08;;;28.35;;
23370;SDS011;11858;51.056;3.712;2023-03-01T16:20:11;30.23;;;27.40;;